Time;durP1;ratioP1;P1;durP2;ratioP2;P2;SDS_P1;SDS_P2;PMS_P1;PMS_P2;Temp;Humidity;BMP_temperature;BMP_pressure;BME280_temperature;BME280_humidity;BME280_pressure;Samples;Min_cycle;Max_cycle;Signal;HPM_P1;HPM_P2
2021/05/31 00:01:27;;;;;;;1999.90;999.90;;;12.30;99.90;;;;;;4980119;28;20189;-79
2021/05/31 00:03:53;;;;;;;1999.90;999.90;;;12.30;99.90;;;;;;4979720;28;20216;-79
2021/05/31 00:06:20;;;;;;;1999.90;999.90;;;12.20;99.90;;;;;;4980105;28;20180;-79
2021/05/31 00:08:45;;;;;;;1999.90;999.90;;;12.20;99.90;;;;;;4979666;28;20184;-79
2021/05/31 00:11:11;;;;;;;1999.90;999.90;;;12.30;99.90;;;;;;4979426;28;20204;-79
2021/05/31 00:13:37;;;;;;;1999.90;999.90;;;12.20;99.90;;;;;;4985043;28;20223;-79
2021/05/31 00:16:03;;;;;;;1999.90;999.90;;;12.30;99.90;;;;;;4987190;28;20200;-78
2021/05/31 00:18:28;;;;;;;1999.90;999.90;;;12.30;99.90;;;;;;4961094;28;20201;-79
2021/05/31 00:20:54;;;;;;;1999.90;999.90;;;12.40;99.90;;;;;;4978057;28;20267;-79
2021/05/31 00:23:20;;;;;;;1999.90;999.90;;;12.30;99.90;;;;;;4978085;28;20244;-79
2021/05/31 00:25:46;;;;;;;1999.90;999.90;;;12.30;99.90;;;;;;4978491;28;20768;-79
2021/05/31 00:28:13;;;;;;;1999.90;999.90;;;12.30;99.90;;;;;;4978469;28;20231;-79
2021/05/31 00:30:40;;;;;;;1999.90;999.90;;;12.30;99.90;;;;;;4978004;28;20238;-79
2021/05/31 00:33:06;;;;;;;1999.90;999.90;;;12.40;99.90;;;;;;4977787;28;20689;-79
2021/05/31 00:35:32;;;;;;;1999.90;999.90;;;12.30;99.90;;;;;;4977894;28;20270;-79
2021/05/31 00:37:58;;;;;;;1999.90;999.90;;;12.30;99.90;;;;;;4979328;28;20212;-80
2021/05/31 00:40:25;;;;;;;1999.90;999.90;;;12.20;99.90;;;;;;4978517;28;20200;-79
2021/05/31 00:42:51;;;;;;;1999.90;999.90;;;12.30;99.90;;;;;;4977691;28;20293;-79
2021/05/31 00:45:17;;;;;;;1999.90;999.90;;;12.30;99.90;;;;;;4977799;28;20271;-79
2021/05/31 00:47:43;;;;;;;1999.90;999.90;;;12.20;99.90;;;;;;4960033;28;20567;-78
2021/05/31 00:50:11;;;;;;;1999.90;999.90;;;12.20;99.90;;;;;;4978105;28;20263;-79
2021/05/31 00:52:37;;;;;;;1999.90;999.90;;;12.20;99.90;;;;;;4977962;28;20203;-79
2021/05/31 00:55:03;;;;;;;1999.90;999.90;;;12.10;99.90;;;;;;4977471;28;20271;-79
2021/05/31 00:57:30;;;;;;;1999.90;999.90;;;12.10;99.90;;;;;;4978005;28;20519;-78
2021/05/31 00:59:55;;;;;;;1999.90;999.90;;;12.10;99.90;;;;;;4959790;28;20187;-79
2021/05/31 01:02:22;;;;;;;1999.90;999.90;;;12.10;99.90;;;;;;4959970;28;20204;-79
2021/05/31 01:04:47;;;;;;;1999.90;999.90;;;12.20;99.90;;;;;;4977314;28;20220;-79
2021/05/31 01:07:29;;;;;;;1999.90;999.90;;;12.10;99.90;;;;;;4977775;28;20192;-78
2021/05/31 01:10:20;;;;;;;1999.90;999.90;;;12.10;99.90;;;;;;4977129;28;20214;-80
2021/05/31 01:13:13;;;;;;;1999.90;999.90;;;12.10;99.90;;;;;;4977350;28;20230;-78
2021/05/31 01:15:45;;;;;;;1999.90;999.90;;;12.10;99.90;;;;;;4977132;28;20172;-77
2021/05/31 01:18:26;;;;;;;1999.90;999.90;;;12.10;99.90;;;;;;4960457;28;20184;-78
2021/05/31 01:20:55;;;;;;;1999.90;999.90;;;12.10;99.90;;;;;;4969614;28;20186;-79
2021/05/31 01:23:28;;;;;;;1999.90;999.90;;;12.00;99.90;;;;;;4975855;28;20204;-79
2021/05/31 01:25:54;;;;;;;1999.90;999.90;;;12.00;99.90;;;;;;4977322;28;20759;-79
2021/05/31 01:28:46;;;;;;;1999.90;999.90;;;12.00;99.90;;;;;;4976674;28;20243;-79
2021/05/31 01:31:15;;;;;;;1999.90;999.90;;;11.90;99.90;;;;;;4977352;28;20180;-80
2021/05/31 01:33:41;;;;;;;1999.90;999.90;;;11.80;99.90;;;;;;4977188;28;20214;-79
2021/05/31 01:36:07;;;;;;;1999.90;999.90;;;11.80;99.90;;;;;;4976793;28;20184;-79
2021/05/31 01:38:36;;;;;;;1999.90;999.90;;;11.80;99.90;;;;;;4971208;28;20214;-79
2021/05/31 01:41:03;;;;;;;1999.90;999.90;;;11.80;99.90;;;;;;4957723;28;20295;-80
2021/05/31 01:43:30;;;;;;;1999.90;999.90;;;11.80;99.90;;;;;;4974441;28;20200;-80
2021/05/31 01:45:57;;;;;;;1999.90;999.90;;;11.80;99.90;;;;;;4976468;28;20187;-80
2021/05/31 01:48:23;;;;;;;1999.90;999.90;;;11.70;99.90;;;;;;4959161;28;20178;-79
2021/05/31 01:50:50;;;;;;;1999.90;999.90;;;11.70;99.90;;;;;;4976282;28;20181;-79
2021/05/31 01:53:15;;;;;;;1999.90;999.90;;;11.70;99.90;;;;;;4975582;28;20239;-79
2021/05/31 01:55:42;;;;;;;1999.90;999.90;;;11.60;99.90;;;;;;4976299;28;20180;-78
2021/05/31 01:58:09;;;;;;;1999.90;999.90;;;11.50;99.90;;;;;;4975817;28;20199;-79
2021/05/31 02:00:35;;;;;;;1999.90;999.90;;;11.50;99.90;;;;;;4976084;28;20274;-79
2021/05/31 02:03:02;;;;;;;1999.90;999.90;;;11.50;99.90;;;;;;4976513;28;20318;-79
2021/05/31 02:05:28;;;;;;;1999.90;999.90;;;11.50;99.90;;;;;;4965927;28;20183;-79
2021/05/31 02:07:55;;;;;;;1999.90;999.90;;;11.50;99.90;;;;;;4982837;28;20565;-78
2021/05/31 02:10:21;;;;;;;1999.90;999.90;;;11.50;99.90;;;;;;4976374;28;20544;-78
2021/05/31 02:12:53;;;;;;;1999.90;999.90;;;11.60;99.90;;;;;;4976144;28;20212;-78
2021/05/31 02:15:43;;;;;;;1999.90;999.90;;;11.50;99.90;;;;;;4978821;28;20180;-78
2021/05/31 02:18:24;;;;;;;1999.90;999.90;;;11.60;99.90;;;;;;4959788;28;20549;-79
2021/05/31 02:20:54;;;;;;;1999.90;999.90;;;11.50;99.90;;;;;;4976308;28;20173;-79
2021/05/31 02:23:20;;;;;;;1999.90;999.90;;;11.50;99.90;;;;;;4975945;28;20200;-79
2021/05/31 02:25:49;;;;;;;1999.90;999.90;;;11.40;99.90;;;;;;4975934;28;20674;-79
2021/05/31 02:28:15;;;;;;;1999.90;999.90;;;11.50;99.90;;;;;;4975850;28;20177;-80
2021/05/31 02:30:42;;;;;;;1999.90;999.90;;;11.40;99.90;;;;;;4975657;28;20173;-79
2021/05/31 02:33:08;;;;;;;1999.90;999.90;;;11.50;99.90;;;;;;4975643;28;20785;-79
2021/05/31 02:35:37;;;;;;;1999.90;999.90;;;11.40;99.90;;;;;;4975578;28;20331;-78
2021/05/31 02:38:03;;;;;;;1999.90;999.90;;;11.30;99.90;;;;;;4975622;28;20184;-79
2021/05/31 02:40:30;;;;;;;1999.90;999.90;;;11.30;99.90;;;;;;4975847;28;20184;-79
2021/05/31 02:43:01;;;;;;;1999.90;999.90;;;11.30;99.90;;;;;;4975917;28;20208;-80
2021/05/31 02:45:27;;;;;;;1999.90;999.90;;;11.20;99.90;;;;;;4979577;28;20172;-79
2021/05/31 02:47:55;;;;;;;1999.90;999.90;;;11.20;99.90;;;;;;4979511;28;20212;-80
2021/05/31 02:50:21;;;;;;;1999.90;999.90;;;11.20;99.90;;;;;;4980148;28;20652;-79
2021/05/31 02:52:47;;;;;;;1999.90;999.90;;;11.20;99.90;;;;;;4979579;28;20223;-79
2021/05/31 02:55:15;;;;;;;1999.90;999.90;;;11.10;99.90;;;;;;4979368;28;20181;-79
2021/05/31 02:57:42;;;;;;;1999.90;999.90;;;11.10;99.90;;;;;;4979394;28;20181;-79
2021/05/31 03:00:11;;;;;;;1999.90;999.90;;;11.10;99.90;;;;;;4961933;28;20298;-80
2021/05/31 03:02:36;;;;;;;1999.90;999.90;;;11.00;99.90;;;;;;4979475;28;20331;-79
2021/05/31 03:05:03;;;;;;;1999.90;999.90;;;11.10;99.90;;;;;;4979840;28;20231;-79
2021/05/31 03:07:29;;;;;;;1999.90;999.90;;;11.00;99.90;;;;;;4963043;28;20659;-79
2021/05/31 03:09:54;;;;;;;1999.90;999.90;;;10.90;99.90;;;;;;4980967;28;20185;-79
2021/05/31 03:12:21;;;;;;;1999.90;999.90;;;10.90;99.90;;;;;;4979068;28;20213;-79
2021/05/31 03:14:48;;;;;;;1999.90;999.90;;;10.80;99.90;;;;;;4979071;28;20185;-79
2021/05/31 03:17:14;;;;;;;1999.90;999.90;;;10.80;99.90;;;;;;4979721;28;20181;-80
2021/05/31 03:19:40;;;;;;;1999.90;999.90;;;10.80;99.90;;;;;;4979005;28;20573;-79
2021/05/31 03:22:06;;;;;;;1999.90;999.90;;;10.80;99.90;;;;;;4980049;28;20196;-79
2021/05/31 03:24:31;;;;;;;1999.90;999.90;;;10.70;99.90;;;;;;4979824;28;20209;-80
2021/05/31 03:26:57;;;;;;;1999.90;999.90;;;10.80;99.90;;;;;;4983807;28;20172;-80
2021/05/31 03:29:22;;;;;;;1999.90;999.90;;;10.80;99.90;;;;;;4961847;28;20184;-79
2021/05/31 03:31:48;;;;;;;1999.90;999.90;;;10.70;99.90;;;;;;4977836;28;20275;-80
2021/05/31 03:34:14;;;;;;;1999.90;999.90;;;10.50;99.90;;;;;;4992176;28;20177;-80
2021/05/31 03:36:39;;;;;;;1999.90;999.90;;;10.60;99.90;;;;;;4978590;28;20527;-80
2021/05/31 03:39:07;;;;;;;1999.90;999.90;;;10.60;99.90;;;;;;4961427;28;20191;-80
2021/05/31 03:41:33;;;;;;;1999.90;999.90;;;10.50;99.90;;;;;;4979445;28;20267;-80
2021/05/31 03:43:59;;;;;;;1999.90;999.90;;;10.60;99.90;;;;;;4978763;28;20232;-80
2021/05/31 03:46:25;;;;;;;1999.90;999.90;;;10.60;99.90;;;;;;4981023;28;20212;-79
2021/05/31 03:48:52;;;;;;;1999.90;999.90;;;10.60;99.90;;;;;;4966247;28;20188;-79
2021/05/31 03:51:18;;;;;;;1999.90;999.90;;;10.60;99.90;;;;;;4964281;28;20184;-79
2021/05/31 03:53:44;;;;;;;1999.90;999.90;;;10.50;99.90;;;;;;4982132;28;20719;-80
2021/05/31 03:56:10;;;;;;;1999.90;999.90;;;10.50;99.90;;;;;;4979887;28;20176;-79
2021/05/31 03:58:38;;;;;;;1999.90;999.90;;;10.60;99.90;;;;;;4972690;28;20185;-79
2021/05/31 04:01:04;;;;;;;1999.90;999.90;;;10.50;99.90;;;;;;4982162;28;20557;-81
2021/05/31 04:03:30;;;;;;;1999.90;999.90;;;10.20;99.90;;;;;;4962290;28;20209;-79
2021/05/31 04:14:01;;;;;;;1999.90;999.90;;;10.30;99.90;;;;;;4967006;28;20188;-79
2021/05/31 04:16:27;;;;;;;1999.90;999.90;;;10.30;99.90;;;;;;4973840;28;20180;-80
2021/05/31 04:18:52;;;;;;;1999.90;999.90;;;10.30;99.90;;;;;;4966407;28;20181;-79
2021/05/31 04:21:18;;;;;;;1999.90;999.90;;;10.30;99.90;;;;;;4945969;28;20216;-81
2021/05/31 04:23:44;;;;;;;1999.90;999.90;;;10.30;99.90;;;;;;4962369;28;20221;-80
2021/05/31 04:26:09;;;;;;;1999.90;999.90;;;10.40;99.90;;;;;;4969231;28;20180;-80
2021/05/31 04:28:35;;;;;;;1999.90;999.90;;;10.20;99.90;;;;;;4967746;28;20185;-80
2021/05/31 04:31:01;;;;;;;1999.90;999.90;;;10.30;99.90;;;;;;4969435;28;20180;-80
2021/05/31 04:33:26;;;;;;;1999.90;999.90;;;10.40;99.90;;;;;;4963937;28;20200;-79
2021/05/31 04:35:52;;;;;;;1999.90;999.90;;;10.60;99.90;;;;;;4960496;28;20181;-80
2021/05/31 04:38:18;;;;;;;1999.90;999.90;;;10.70;99.90;;;;;;4963179;28;20182;-80
2021/05/31 04:40:43;;;;;;;1999.90;999.90;;;10.60;99.90;;;;;;4968420;28;20652;-80
2021/05/31 04:43:09;;;;;;;1999.90;999.90;;;10.70;99.90;;;;;;4970674;28;20208;-79
2021/05/31 04:45:34;;;;;;;1999.90;999.90;;;10.80;99.90;;;;;;4968058;28;20196;-80
2021/05/31 04:48:00;;;;;;;1999.90;999.90;;;10.90;99.90;;;;;;4966038;28;20177;-80
2021/05/31 04:50:26;;;;;;;1999.90;999.90;;;11.00;99.90;;;;;;4964021;28;20176;-80
2021/05/31 04:52:52;;;;;;;1999.90;999.90;;;11.10;99.90;;;;;;4964364;28;20197;-80
2021/05/31 04:55:18;;;;;;;1999.90;999.90;;;11.20;99.90;;;;;;4966473;28;20534;-79
2021/05/31 04:57:46;;;;;;;1999.90;999.90;;;11.30;99.90;;;;;;4964913;28;20172;-81
2021/05/31 05:00:13;;;;;;;1999.90;999.90;;;11.50;99.90;;;;;;4967296;28;20173;-81
2021/05/31 05:02:39;;;;;;;1999.90;999.90;;;11.50;99.90;;;;;;4961084;28;20209;-80
2021/05/31 05:05:05;;;;;;;1999.90;999.90;;;11.60;99.90;;;;;;4962941;28;20209;-81
2021/05/31 05:07:31;;;;;;;1999.90;999.90;;;11.70;99.90;;;;;;4959423;28;20182;-81
2021/05/31 05:09:56;;;;;;;1999.90;999.90;;;11.70;99.90;;;;;;4966497;28;20177;-82
2021/05/31 05:12:22;;;;;;;1999.90;999.90;;;11.70;99.90;;;;;;4965375;28;20240;-81
2021/05/31 05:14:48;;;;;;;1999.90;999.90;;;11.80;99.90;;;;;;4963716;28;20213;-81
2021/05/31 05:17:16;;;;;;;1999.90;999.90;;;11.80;99.90;;;;;;4962481;28;20271;-79
2021/05/31 05:19:42;;;;;;;1999.90;999.90;;;11.90;99.90;;;;;;4942471;28;20672;-80
2021/05/31 05:22:08;;;;;;;1999.90;999.90;;;12.00;99.90;;;;;;4942624;28;20201;-80
2021/05/31 05:24:34;;;;;;;1999.90;999.90;;;12.00;99.90;;;;;;4960972;28;20674;-80
2021/05/31 05:27:05;;;;;;;1999.90;999.90;;;12.10;99.90;;;;;;4964964;28;20271;-79
2021/05/31 05:29:31;;;;;;;1999.90;999.90;;;12.20;99.90;;;;;;4964259;28;20229;-79
2021/05/31 05:31:58;;;;;;;1999.90;999.90;;;12.20;99.90;;;;;;4964958;28;20239;-80
2021/05/31 05:34:24;;;;;;;1999.90;999.90;;;12.20;99.90;;;;;;4964385;28;20181;-81
2021/05/31 05:36:51;;;;;;;1999.90;999.90;;;12.30;99.90;;;;;;4966315;28;20214;-79
2021/05/31 05:39:33;;;;;;;1999.90;999.90;;;12.40;99.90;;;;;;4962189;28;20184;-80
2021/05/31 05:42:28;;;;;;;1999.90;999.90;;;12.50;99.90;;;;;;4976921;28;20219;-81
2021/05/31 05:48:02;;;;;;;1999.90;999.90;;;12.70;99.90;;;;;;4979568;28;20214;-80
2021/05/31 05:50:12;;;;;;;1999.90;999.90;;;12.80;99.90;;;;;;4976212;28;20190;-82
2021/05/31 05:52:38;;;;;;;1999.90;999.90;;;12.90;99.90;;;;;;4978649;28;20208;-80
2021/05/31 05:55:07;;;;;;;1999.90;999.90;;;12.90;99.90;;;;;;4978795;28;20211;-81
2021/05/31 05:57:33;;;;;;;1999.90;999.90;;;13.00;99.90;;;;;;4961695;28;20296;-81
2021/05/31 06:00:01;;;;;;;1999.90;999.90;;;13.10;99.90;;;;;;4982150;28;20220;-80
2021/05/31 06:02:27;;;;;;;1999.90;999.90;;;13.10;99.90;;;;;;4977887;28;20208;-81
2021/05/31 06:04:53;;;;;;;1999.90;999.90;;;13.10;99.90;;;;;;4962792;28;20701;-80
2021/05/31 06:07:19;;;;;;;1999.90;999.90;;;13.20;99.90;;;;;;4979941;28;20546;-81
2021/05/31 06:09:44;;;;;;;1999.90;999.90;;;13.30;99.90;;;;;;4984627;28;20727;-80
2021/05/31 06:12:10;;;;;;;1999.90;999.90;;;13.40;99.90;;;;;;4991756;28;20240;-81
2021/05/31 06:14:36;;;;;;;1999.90;999.90;;;13.40;99.90;;;;;;4983277;28;20193;-82
2021/05/31 06:17:01;;;;;;;1999.90;999.90;;;13.50;99.90;;;;;;4963183;28;20215;-81
2021/05/31 06:19:29;;;;;;;1999.90;999.90;;;13.60;99.90;;;;;;4979757;28;20185;-82
2021/05/31 06:21:54;;;;;;;1999.90;999.90;;;13.70;99.90;;;;;;4979894;28;20208;-82
2021/05/31 06:24:20;;;;;;;1999.90;999.90;;;13.70;99.90;;;;;;4979403;28;20671;-82
2021/05/31 06:26:46;;;;;;;1999.90;999.90;;;13.70;99.90;;;;;;4962710;28;20939;-81
2021/05/31 06:29:11;;;;;;;1999.90;999.90;;;13.70;99.90;;;;;;4962466;28;20180;-83
2021/05/31 06:31:37;;;;;;;1999.90;999.90;;;13.70;99.90;;;;;;4980800;28;20174;-82
2021/05/31 06:34:03;;;;;;;1999.90;999.90;;;13.80;99.90;;;;;;4964454;28;20189;-82
2021/05/31 06:36:30;;;;;;;1999.90;999.90;;;13.90;99.90;;;;;;4964566;28;20184;-82
2021/05/31 06:38:56;;;;;;;1999.90;999.90;;;13.90;99.90;;;;;;4980587;28;20180;-83
2021/05/31 06:41:21;;;;;;;1999.90;999.90;;;13.90;99.90;;;;;;4981033;28;20897;-79
2021/05/31 06:43:47;;;;;;;1999.90;999.90;;;13.90;99.90;;;;;;4978871;28;20283;-79
2021/05/31 06:46:13;;;;;;;1999.90;999.90;;;14.00;99.90;;;;;;4980026;28;20599;-80
2021/05/31 06:48:38;;;;;;;1999.90;999.90;;;14.00;99.90;;;;;;4961271;28;20200;-79
2021/05/31 06:51:05;;;;;;;1999.90;999.90;;;14.10;99.90;;;;;;4977784;28;20191;-79
2021/05/31 06:53:31;;;;;;;1999.90;999.90;;;14.20;99.90;;;;;;4958213;28;20693;-77
2021/05/31 06:55:57;;;;;;;1999.90;999.90;;;14.20;99.90;;;;;;4956692;28;20266;-78
2021/05/31 06:58:23;;;;;;;1999.90;999.90;;;14.30;99.90;;;;;;4955524;28;20272;-78
2021/05/31 07:00:50;;;;;;;1999.90;999.90;;;14.40;99.90;;;;;;4955646;28;20235;-78
2021/05/31 07:03:15;;;;;;;1999.90;999.90;;;14.50;99.90;;;;;;4973397;28;20286;-78
2021/05/31 07:05:41;;;;;;;1999.90;999.90;;;14.50;99.90;;;;;;4973744;28;20203;-79
2021/05/31 07:08:07;;;;;;;1999.90;999.90;;;14.50;99.90;;;;;;4966641;28;20184;-81
2021/05/31 07:10:32;;;;;;;1999.90;999.90;;;14.60;99.90;;;;;;4976313;28;20180;-80
2021/05/31 07:13:00;;;;;;;1999.90;999.90;;;14.80;99.90;;;;;;4976967;28;20584;-78
2021/05/31 07:15:25;;;;;;;1999.90;999.90;;;14.90;99.90;;;;;;4960956;28;20247;-78
2021/05/31 07:17:51;;;;;;;1999.90;999.90;;;14.90;99.90;;;;;;4977144;28;20173;-79
2021/05/31 07:20:19;;;;;;;1999.90;999.90;;;15.00;99.90;;;;;;4975605;28;20177;-80
2021/05/31 07:22:46;;;;;;;1999.90;999.90;;;15.00;99.90;;;;;;4955313;28;20211;-79
2021/05/31 07:25:14;;;;;;;1999.90;999.90;;;15.20;99.90;;;;;;4965256;28;20215;-79
2021/05/31 07:27:40;;;;;;;1999.90;999.90;;;15.30;99.90;;;;;;4982724;28;20191;-81
2021/05/31 07:30:07;;;;;;;1999.90;999.90;;;15.40;99.90;;;;;;4982440;28;20718;-80
2021/05/31 07:32:34;;;;;;;1999.90;999.90;;;15.60;99.90;;;;;;4971061;28;20197;-80
2021/05/31 07:34:59;;;;;;;1999.90;999.90;;;15.80;99.90;;;;;;4997289;28;20204;-79
2021/05/31 07:37:25;;;;;;;1999.90;999.90;;;15.80;99.90;;;;;;4983828;28;20180;-79
2021/05/31 07:39:51;;;;;;;1999.90;999.90;;;15.90;99.90;;;;;;4982309;28;20277;-80
2021/05/31 07:42:17;;;;;;;1999.90;999.90;;;16.10;99.90;;;;;;4982153;28;20200;-79
2021/05/31 07:44:44;;;;;;;1999.90;999.90;;;16.20;99.50;;;;;;4982594;28;20633;-79
2021/05/31 07:47:09;;;;;;;1999.90;999.90;;;16.20;99.80;;;;;;4981865;28;20182;-81
2021/05/31 07:49:35;;;;;;;1999.90;999.90;;;16.30;99.10;;;;;;4982188;28;20259;-79
2021/05/31 07:52:18;;;;;;;1999.90;999.90;;;16.40;99.10;;;;;;4982585;28;20546;-80
2021/05/31 07:54:43;;;;;;;1999.90;999.90;;;16.30;98.70;;;;;;4977999;28;20187;-80
2021/05/31 07:57:09;;;;;;;1999.90;999.90;;;16.40;98.60;;;;;;4981203;28;20184;-80
2021/05/31 07:59:35;;;;;;;1999.90;999.90;;;16.50;98.70;;;;;;4980728;28;20176;-85
2021/05/31 08:02:00;;;;;;;1999.90;999.90;;;16.60;98.40;;;;;;4988752;28;20207;-83
2021/05/31 08:04:26;;;;;;;1999.90;999.90;;;16.80;98.00;;;;;;4990021;28;20204;-84
2021/05/31 08:06:51;;;;;;;1999.90;999.90;;;16.90;98.00;;;;;;4972467;28;20187;-83
2021/05/31 08:09:17;;;;;;;1999.90;999.90;;;16.90;96.60;;;;;;4972845;28;20527;-84
2021/05/31 08:11:43;;;;;;;1999.90;999.90;;;16.90;97.60;;;;;;4990044;28;20196;-83
2021/05/31 08:14:08;;;;;;;1999.90;999.90;;;17.10;96.80;;;;;;4991276;28;20219;-82
2021/05/31 08:16:35;;;;;;;1999.90;999.90;;;17.10;96.10;;;;;;5004858;28;20172;-84
2021/05/31 08:19:00;;;;;;;1999.90;999.90;;;16.90;96.70;;;;;;4989454;28;20187;-83
2021/05/31 08:21:26;;;;;;;1999.90;999.90;;;;;;;;;;4976776;28;20184;-83
2021/05/31 08:23:52;;;;;;;1999.90;999.90;;;17.10;96.40;;;;;;4983903;28;20204;-84
2021/05/31 08:26:20;;;;;;;1999.90;999.90;;;17.20;96.70;;;;;;4971137;28;20177;-83
2021/05/31 08:28:47;;;;;;;1999.90;999.90;;;17.30;96.30;;;;;;4974413;28;20184;-84
2021/05/31 08:31:13;;;;;;;1999.90;999.90;;;17.40;96.70;;;;;;4974812;28;20327;-83
2021/05/31 08:33:39;;;;;;;1999.90;999.90;;;17.40;96.90;;;;;;4990697;28;20200;-84
2021/05/31 08:36:05;;;;;;;1999.90;999.90;;;17.50;96.80;;;;;;4970446;28;20208;-83
2021/05/31 08:38:33;;;;;;;1999.90;999.90;;;17.70;96.70;;;;;;4969545;28;20185;-84
2021/05/31 08:41:00;;;;;;;1999.90;999.90;;;17.70;96.00;;;;;;4986974;28;20204;-81
2021/05/31 08:43:26;;;;;;;1999.90;999.90;;;17.60;96.20;;;;;;4982656;28;20204;-82
2021/05/31 08:45:52;;;;;;;1999.90;999.90;;;17.70;96.60;;;;;;4982402;28;20185;-82
2021/05/31 08:48:18;;;;;;;1999.90;999.90;;;17.80;96.60;;;;;;4982660;28;20184;-81
2021/05/31 08:50:44;;;;;;;1999.90;999.90;;;17.90;95.90;;;;;;4982103;28;20176;-81
2021/05/31 08:53:10;;;;;;;1999.90;999.90;;;17.90;95.70;;;;;;4965326;28;20203;-83
2021/05/31 08:55:36;;;;;;;1999.90;999.90;;;17.90;95.80;;;;;;4995900;28;20176;-83
2021/05/31 08:58:03;;;;;;;1999.90;999.90;;;17.90;96.30;;;;;;4976167;28;20304;-82
2021/05/31 09:00:32;;;;;;;1999.90;999.90;;;18.00;97.20;;;;;;4982979;28;20598;-82
2021/05/31 09:03:00;;;;;;;1999.90;999.90;;;18.10;95.70;;;;;;4981931;28;20468;-82
2021/05/31 09:05:37;;;;;;;1999.90;999.90;;;18.00;95.60;;;;;;4983078;28;20523;-83
2021/05/31 09:08:05;;;;;;;1999.90;999.90;;;18.10;96.30;;;;;;4996499;28;20166;-83
2021/05/31 09:10:45;;;;;;;1999.90;999.90;;;18.20;95.40;;;;;;4972193;28;20167;-83
2021/05/31 09:13:26;;;;;;;1999.90;999.90;;;18.50;95.10;;;;;;4985910;28;20494;-83
2021/05/31 09:16:14;;;;;;;1999.90;999.90;;;18.50;95.30;;;;;;4966313;28;20690;-83
2021/05/31 09:18:46;;;;;;;1999.90;999.90;;;18.40;95.40;;;;;;4997508;28;20263;-83
2021/05/31 09:21:25;;;;;;;1999.90;999.90;;;18.50;95.40;;;;;;4982090;28;20177;-82
2021/05/31 09:24:02;;;;;;;1999.90;999.90;;;18.50;94.10;;;;;;4982704;28;20327;-81
2021/05/31 09:26:28;;;;;;;1999.90;999.90;;;18.50;94.30;;;;;;4979938;28;20542;-82
2021/05/31 09:28:56;;;;;;;1999.90;999.90;;;18.60;94.00;;;;;;4980277;28;20180;-83
2021/05/31 09:31:22;;;;;;;1999.90;999.90;;;18.70;94.00;;;;;;4982449;28;20204;-81
2021/05/31 09:34:01;;;;;;;1999.90;999.90;;;18.70;94.00;;;;;;4965648;28;20200;-82
2021/05/31 09:36:27;;;;;;;1999.90;999.90;;;18.70;93.00;;;;;;4992010;28;20176;-81
2021/05/31 09:38:54;;;;;;;1999.90;999.90;;;19.00;94.70;;;;;;4967216;28;20777;-83
2021/05/31 09:41:25;;;;;;;1999.90;999.90;;;19.30;93.70;;;;;;4982541;28;20224;-82
2021/05/31 09:43:55;;;;;;;1999.90;999.90;;;19.10;93.30;;;;;;4982564;28;20572;-83
2021/05/31 09:46:20;;;;;;;1999.90;999.90;;;19.10;91.80;;;;;;4963819;28;20188;-82
2021/05/31 09:48:46;;;;;;;1999.90;999.90;;;19.10;92.10;;;;;;4964797;28;20177;-82
2021/05/31 09:51:14;;;;;;;1999.90;999.90;;;19.20;92.20;;;;;;4982767;28;20180;-82
2021/05/31 09:53:40;;;;;;;1999.90;999.90;;;19.30;93.00;;;;;;4966046;28;20208;-82
2021/05/31 09:56:14;;;;;;;1999.90;999.90;;;19.30;92.60;;;;;;4997226;28;20593;-82
2021/05/31 09:59:01;;;;;;;1999.90;999.90;;;19.40;93.60;;;;;;4983228;28;20589;-82
2021/05/31 10:01:40;;;;;;;1999.90;999.90;;;19.40;91.10;;;;;;4996849;28;20168;-82
2021/05/31 10:04:17;;;;;;;1999.90;999.90;;;19.50;91.00;;;;;;4983615;28;20196;-81
2021/05/31 10:06:52;;;;;;;1999.90;999.90;;;19.70;90.90;;;;;;4980460;28;20667;-81
2021/05/31 10:09:19;;;;;;;1999.90;999.90;;;19.80;90.50;;;;;;4993736;28;20536;-82
2021/05/31 10:11:47;;;;;;;1999.90;999.90;;;20.00;91.10;;;;;;4966014;28;20180;-83
2021/05/31 10:14:16;;;;;;;1999.90;999.90;;;19.90;91.00;;;;;;4982606;28;20189;-82
2021/05/31 10:16:42;;;;;;;1999.90;999.90;;;19.90;90.70;;;;;;4995385;28;20261;-83
2021/05/31 10:19:09;;;;;;;1999.90;999.90;;;19.90;90.60;;;;;;4990130;28;20183;-81
2021/05/31 10:21:34;;;;;;;1999.90;999.90;;;19.90;90.50;;;;;;4988673;28;20279;-83
2021/05/31 10:24:01;;;;;;;1999.90;999.90;;;20.00;90.20;;;;;;4982951;28;20230;-82
2021/05/31 10:26:31;;;;;;;1999.90;999.90;;;20.30;90.80;;;;;;4983467;28;20196;-81
2021/05/31 10:28:58;;;;;;;1999.90;999.90;;;20.30;90.20;;;;;;4981543;28;20173;-81
2021/05/31 10:31:25;;;;;;;1999.90;999.90;;;20.30;90.90;;;;;;4983333;28;20238;-83
2021/05/31 10:33:59;;;;;;;1999.90;999.90;;;20.40;91.40;;;;;;4964430;28;20184;-81
2021/05/31 10:36:31;;;;;;;1999.90;999.90;;;20.40;89.80;;;;;;4979120;28;20228;-82
2021/05/31 10:39:03;;;;;;;1999.90;999.90;;;20.50;90.30;;;;;;4992215;28;20176;-84
2021/05/31 10:41:31;;;;;;;1999.90;999.90;;;20.50;91.00;;;;;;4982597;28;20164;-82
2021/05/31 10:43:59;;;;;;;1999.90;999.90;;;20.60;89.20;;;;;;4982194;28;20217;-82
2021/05/31 10:46:34;;;;;;;1999.90;999.90;;;20.50;89.70;;;;;;4982621;28;20176;-82
2021/05/31 10:49:03;;;;;;;1999.90;999.90;;;20.60;90.20;;;;;;4995794;28;20298;-83
2021/05/31 10:51:35;;;;;;;1999.90;999.90;;;20.70;90.20;;;;;;4982338;28;20164;-82
2021/05/31 10:54:18;;;;;;;1999.90;999.90;;;20.70;85.80;;;;;;4982985;28;20196;-82
2021/05/31 10:56:45;;;;;;;1999.90;999.90;;;20.50;86.70;;;;;;4988167;28;20713;-83
2021/05/31 10:59:22;;;;;;;1999.90;999.90;;;20.40;87.00;;;;;;4985121;28;20196;-83
2021/05/31 11:01:48;;;;;;;1999.90;999.90;;;20.40;88.30;;;;;;4986175;28;20203;-81
2021/05/31 11:04:21;;;;;;;1999.90;999.90;;;20.20;86.40;;;;;;4968902;28;20679;-81
2021/05/31 11:06:48;;;;;;;1999.90;999.90;;;20.30;86.20;;;;;;4985598;28;20196;-81
2021/05/31 11:09:32;;;;;;;1999.90;999.90;;;20.60;89.30;;;;;;4985182;28;20195;-81
2021/05/31 11:12:05;;;;;;;1999.90;999.90;;;20.60;87.90;;;;;;4997377;28;20230;-81
2021/05/31 11:14:44;;;;;;;1999.90;999.90;;;20.60;86.70;;;;;;4992317;28;20169;-83
2021/05/31 11:17:13;;;;;;;1999.90;999.90;;;20.60;86.50;;;;;;4985773;28;20176;-81
2021/05/31 11:19:43;;;;;;;1999.90;999.90;;;;;;;;;;4990043;28;20179;-81
2021/05/31 11:22:24;;;;;;;1999.90;999.90;;;20.90;91.30;;;;;;4986958;28;20201;-81
2021/05/31 11:24:59;;;;;;;1999.90;999.90;;;21.30;85.10;;;;;;4998855;28;20192;-82
2021/05/31 11:27:32;;;;;;;1999.90;999.90;;;21.30;84.70;;;;;;4999082;28;20156;-82
2021/05/31 11:29:59;;;;;;;1999.90;999.90;;;21.30;85.10;;;;;;4968701;28;20181;-82
2021/05/31 11:32:26;;;;;;;1999.90;999.90;;;21.30;85.70;;;;;;5008170;28;20196;-83
2021/05/31 11:34:57;;;;;;;1999.90;999.90;;;21.10;85.60;;;;;;5002194;28;20176;-84
2021/05/31 11:37:24;;;;;;;1999.90;999.90;;;21.20;88.20;;;;;;4994793;28;20180;-84
2021/05/31 11:39:51;;;;;;;1999.90;999.90;;;21.30;86.60;;;;;;4984685;28;20172;-83
2021/05/31 11:42:17;;;;;;;1999.90;999.90;;;21.30;85.10;;;;;;5008751;28;20204;-83
2021/05/31 11:44:49;;;;;;;1999.90;999.90;;;21.50;89.80;;;;;;4977286;28;20192;-85
2021/05/31 11:47:20;;;;;;;1999.90;999.90;;;21.60;85.70;;;;;;4992976;28;20203;-84
2021/05/31 11:49:46;;;;;;;1999.90;999.90;;;21.60;85.80;;;;;;4970692;28;20192;-84
2021/05/31 11:52:12;;;;;;;1999.90;999.90;;;21.50;82.30;;;;;;4973307;28;20220;-84
2021/05/31 11:54:40;;;;;;;1999.90;999.90;;;21.40;85.10;;;;;;4991738;28;20185;-84
2021/05/31 11:57:08;;;;;;;1999.90;999.90;;;21.50;84.90;;;;;;4980067;28;20191;-84
2021/05/31 11:59:42;;;;;;;1999.90;999.90;;;21.50;82.10;;;;;;4975538;28;20273;-85
2021/05/31 12:02:13;;;;;;;1999.90;999.90;;;21.90;86.50;;;;;;4972308;28;20274;-84
2021/05/31 12:04:42;;;;;;;1999.90;999.90;;;22.00;86.20;;;;;;4963032;28;20212;-83
2021/05/31 12:07:11;;;;;;;1999.90;999.90;;;22.00;83.60;;;;;;4966867;28;20172;-84
2021/05/31 12:09:38;;;;;;;1999.90;999.90;;;21.80;83.30;;;;;;4956995;28;20216;-86
2021/05/31 12:12:04;;;;;;;1999.90;999.90;;;22.10;86.20;;;;;;4969470;28;20224;-85
2021/05/31 12:14:45;;;;;;;1999.90;999.90;;;22.10;83.40;;;;;;4969555;28;20192;-84